sensor_id;sensor_type;location;lat;lon;timestamp;temperature;humidity
57466;DHT22;67033;44.984;20.068;2023-01-28T00:00:54;2.40;99.90
57466;DHT22;67033;44.984;20.068;2023-01-28T00:03:19;2.30;99.90
57466;DHT22;67033;44.984;20.068;2023-01-28T00:05:45;2.30;99.90
57466;DHT22;67033;44.984;20.068;2023-01-28T00:08:11;2.40;99.90
57466;DHT22;67033;44.984;20.068;2023-01-28T00:10:41;2.30;99.90
57466;DHT22;67033;44.984;20.068;2023-01-28T00:13:11;2.40;99.90
57466;DHT22;67033;44.984;20.068;2023-01-28T00:15:41;2.40;99.90
57466;DHT22;67033;44.984;20.068;2023-01-28T00:18:06;2.50;99.90
57466;DHT22;67033;44.984;20.068;2023-01-28T00:20:32;2.40;99.90
57466;DHT22;67033;44.984;20.068;2023-01-28T00:22:59;2.40;99.90
57466;DHT22;67033;44.984;20.068;2023-01-28T00:25:27;2.40;99.90
57466;DHT22;67033;44.984;20.068;2023-01-28T00:27:53;2.30;99.90
57466;DHT22;67033;44.984;20.068;2023-01-28T00:30:20;2.30;99.90
57466;DHT22;67033;44.984;20.068;2023-01-28T00:32:46;2.30;99.90
57466;DHT22;67033;44.984;20.068;2023-01-28T00:35:11;2.40;99.90
57466;DHT22;67033;44.984;20.068;2023-01-28T00:37:37;2.40;99.90
57466;DHT22;67033;44.984;20.068;2023-01-28T00:40:03;2.30;99.90
57466;DHT22;67033;44.984;20.068;2023-01-28T00:42:29;2.30;99.90
57466;DHT22;67033;44.984;20.068;2023-01-28T00:44:57;2.40;99.90
57466;DHT22;67033;44.984;20.068;2023-01-28T00:47:23;2.40;99.90
57466;DHT22;67033;44.984;20.068;2023-01-28T00:49:49;2.40;99.90
57466;DHT22;67033;44.984;20.068;2023-01-28T00:52:15;2.40;99.90
57466;DHT22;67033;44.984;20.068;2023-01-28T00:54:40;2.40;99.90
57466;DHT22;67033;44.984;20.068;2023-01-28T00:57:06;2.40;99.90
57466;DHT22;67033;44.984;20.068;2023-01-28T00:59:34;2.40;99.90
57466;DHT22;67033;44.984;20.068;2023-01-28T01:02:00;2.40;99.90
57466;DHT22;67033;44.984;20.068;2023-01-28T01:04:36;2.30;99.90
57466;DHT22;67033;44.984;20.068;2023-01-28T01:07:02;2.40;99.90
57466;DHT22;67033;44.984;20.068;2023-01-28T01:09:28;2.40;99.90
57466;DHT22;67033;44.984;20.068;2023-01-28T01:11:54;2.40;99.90
57466;DHT22;67033;44.984;20.068;2023-01-28T01:14:20;2.40;99.90
57466;DHT22;67033;44.984;20.068;2023-01-28T01:16:45;2.30;99.90
57466;DHT22;67033;44.984;20.068;2023-01-28T01:19:12;2.40;99.90
57466;DHT22;67033;44.984;20.068;2023-01-28T01:21:38;2.40;99.90
57466;DHT22;67033;44.984;20.068;2023-01-28T01:24:04;2.50;99.90
57466;DHT22;67033;44.984;20.068;2023-01-28T01:26:29;2.50;99.90
57466;DHT22;67033;44.984;20.068;2023-01-28T01:28:55;2.40;99.90
57466;DHT22;67033;44.984;20.068;2023-01-28T01:31:21;2.50;99.90
57466;DHT22;67033;44.984;20.068;2023-01-28T01:33:49;2.50;99.90
57466;DHT22;67033;44.984;20.068;2023-01-28T01:36:16;2.50;99.90
57466;DHT22;67033;44.984;20.068;2023-01-28T01:38:44;2.40;99.90
57466;DHT22;67033;44.984;20.068;2023-01-28T01:41:29;2.50;99.90
57466;DHT22;67033;44.984;20.068;2023-01-28T01:44:01;2.50;99.90
57466;DHT22;67033;44.984;20.068;2023-01-28T01:46:35;2.50;99.90
57466;DHT22;67033;44.984;20.068;2023-01-28T01:49:20;2.50;99.90
57466;DHT22;67033;44.984;20.068;2023-01-28T01:51:51;2.50;99.90
57466;DHT22;67033;44.984;20.068;2023-01-28T01:54:20;2.30;99.90
57466;DHT22;67033;44.984;20.068;2023-01-28T01:56:49;2.40;99.90
57466;DHT22;67033;44.984;20.068;2023-01-28T01:59:21;2.50;99.90
57466;DHT22;67033;44.984;20.068;2023-01-28T02:01:48;2.40;99.90
57466;DHT22;67033;44.984;20.068;2023-01-28T02:04:29;2.30;99.90
57466;DHT22;67033;44.984;20.068;2023-01-28T02:06:57;2.30;99.90
57466;DHT22;67033;44.984;20.068;2023-01-28T02:09:33;2.40;99.90
57466;DHT22;67033;44.984;20.068;2023-01-28T02:15:17;2.30;99.90
57466;DHT22;67033;44.984;20.068;2023-01-28T02:17:44;2.30;99.90
57466;DHT22;67033;44.984;20.068;2023-01-28T02:20:13;2.40;99.90
57466;DHT22;67033;44.984;20.068;2023-01-28T02:28:20;2.30;99.90
57466;DHT22;67033;44.984;20.068;2023-01-28T02:31:11;2.30;99.90
57466;DHT22;67033;44.984;20.068;2023-01-28T02:39:17;2.20;99.90
57466;DHT22;67033;44.984;20.068;2023-01-28T02:42:07;2.30;99.90
57466;DHT22;67033;44.984;20.068;2023-01-28T02:44:31;2.30;99.90
57466;DHT22;67033;44.984;20.068;2023-01-28T02:46:57;2.40;99.90
57466;DHT22;67033;44.984;20.068;2023-01-28T02:49:50;2.40;99.90
57466;DHT22;67033;44.984;20.068;2023-01-28T02:58:25;2.50;99.90
57466;DHT22;67033;44.984;20.068;2023-01-28T03:01:05;2.50;99.90
57466;DHT22;67033;44.984;20.068;2023-01-28T03:03:45;2.50;99.90
57466;DHT22;67033;44.984;20.068;2023-01-28T03:06:19;2.50;99.90
57466;DHT22;67033;44.984;20.068;2023-01-28T03:08:57;2.50;99.90
57466;DHT22;67033;44.984;20.068;2023-01-28T03:11:50;2.50;99.90
57466;DHT22;67033;44.984;20.068;2023-01-28T03:14:38;2.40;99.90
57466;DHT22;67033;44.984;20.068;2023-01-28T03:17:31;2.40;99.90
57466;DHT22;67033;44.984;20.068;2023-01-28T03:20:16;2.40;99.90
57466;DHT22;67033;44.984;20.068;2023-01-28T03:23:07;2.60;99.90
57466;DHT22;67033;44.984;20.068;2023-01-28T03:25:55;2.50;99.90
57466;DHT22;67033;44.984;20.068;2023-01-28T03:28:42;2.50;99.90
57466;DHT22;67033;44.984;20.068;2023-01-28T03:31:27;2.50;99.90
57466;DHT22;67033;44.984;20.068;2023-01-28T03:34:13;2.50;99.90
57466;DHT22;67033;44.984;20.068;2023-01-28T03:36:58;2.40;99.90
57466;DHT22;67033;44.984;20.068;2023-01-28T03:39:28;2.50;99.90
57466;DHT22;67033;44.984;20.068;2023-01-28T03:42:13;2.60;99.90
57466;DHT22;67033;44.984;20.068;2023-01-28T03:44:39;2.60;99.90
57466;DHT22;67033;44.984;20.068;2023-01-28T03:49:50;2.60;99.90
57466;DHT22;67033;44.984;20.068;2023-01-28T03:52:25;2.60;99.90
57466;DHT22;67033;44.984;20.068;2023-01-28T03:54:53;2.60;99.90
57466;DHT22;67033;44.984;20.068;2023-01-28T03:57:23;2.60;99.90
57466;DHT22;67033;44.984;20.068;2023-01-28T03:59:49;2.50;99.90
57466;DHT22;67033;44.984;20.068;2023-01-28T04:02:18;2.60;99.90
57466;DHT22;67033;44.984;20.068;2023-01-28T04:04:45;2.60;99.90
57466;DHT22;67033;44.984;20.068;2023-01-28T04:07:12;2.40;99.90
57466;DHT22;67033;44.984;20.068;2023-01-28T04:09:42;2.40;99.90
57466;DHT22;67033;44.984;20.068;2023-01-28T04:12:08;2.50;99.90
57466;DHT22;67033;44.984;20.068;2023-01-28T04:14:34;2.50;99.90
57466;DHT22;67033;44.984;20.068;2023-01-28T04:17:00;2.50;99.90
57466;DHT22;67033;44.984;20.068;2023-01-28T04:19:27;2.50;99.90
57466;DHT22;67033;44.984;20.068;2023-01-28T04:21:53;2.50;99.90
57466;DHT22;67033;44.984;20.068;2023-01-28T04:24:20;2.40;99.90
57466;DHT22;67033;44.984;20.068;2023-01-28T04:26:47;2.50;99.90
57466;DHT22;67033;44.984;20.068;2023-01-28T04:29:13;2.50;99.90
57466;DHT22;67033;44.984;20.068;2023-01-28T04:31:38;2.60;99.90
57466;DHT22;67033;44.984;20.068;2023-01-28T04:34:04;2.60;99.90
57466;DHT22;67033;44.984;20.068;2023-01-28T04:36:30;2.60;99.90
57466;DHT22;67033;44.984;20.068;2023-01-28T04:38:56;2.60;99.90
57466;DHT22;67033;44.984;20.068;2023-01-28T04:41:22;2.70;99.90
57466;DHT22;67033;44.984;20.068;2023-01-28T04:43:48;2.60;99.90
57466;DHT22;67033;44.984;20.068;2023-01-28T04:46:15;2.60;99.90
57466;DHT22;67033;44.984;20.068;2023-01-28T04:48:41;2.60;99.90
57466;DHT22;67033;44.984;20.068;2023-01-28T04:51:07;2.50;99.90
57466;DHT22;67033;44.984;20.068;2023-01-28T04:53:33;2.60;99.90
57466;DHT22;67033;44.984;20.068;2023-01-28T04:55:59;2.60;99.90
57466;DHT22;67033;44.984;20.068;2023-01-28T04:58:25;2.60;99.90
57466;DHT22;67033;44.984;20.068;2023-01-28T05:00:56;2.60;99.90
57466;DHT22;67033;44.984;20.068;2023-01-28T05:03:23;2.70;99.90
57466;DHT22;67033;44.984;20.068;2023-01-28T05:05:49;2.70;99.90
57466;DHT22;67033;44.984;20.068;2023-01-28T05:08:15;2.70;99.90
57466;DHT22;67033;44.984;20.068;2023-01-28T05:10:41;2.70;99.90
57466;DHT22;67033;44.984;20.068;2023-01-28T05:13:07;2.70;99.90
57466;DHT22;67033;44.984;20.068;2023-01-28T05:15:33;2.60;99.90
57466;DHT22;67033;44.984;20.068;2023-01-28T05:17:59;2.60;99.90
57466;DHT22;67033;44.984;20.068;2023-01-28T05:20:26;2.60;99.90
57466;DHT22;67033;44.984;20.068;2023-01-28T05:22:52;2.60;99.90
57466;DHT22;67033;44.984;20.068;2023-01-28T05:25:18;2.60;99.90
57466;DHT22;67033;44.984;20.068;2023-01-28T05:27:49;2.60;99.90
57466;DHT22;67033;44.984;20.068;2023-01-28T05:30:17;2.70;99.90
57466;DHT22;67033;44.984;20.068;2023-01-28T05:32:43;2.70;99.90
57466;DHT22;67033;44.984;20.068;2023-01-28T05:35:08;2.70;99.90
57466;DHT22;67033;44.984;20.068;2023-01-28T05:37:34;2.50;99.90
57466;DHT22;67033;44.984;20.068;2023-01-28T05:40:00;2.60;99.90
57466;DHT22;67033;44.984;20.068;2023-01-28T05:42:26;2.60;99.90
57466;DHT22;67033;44.984;20.068;2023-01-28T05:44:52;2.60;99.90
57466;DHT22;67033;44.984;20.068;2023-01-28T05:47:18;2.60;99.90
57466;DHT22;67033;44.984;20.068;2023-01-28T05:49:44;2.60;99.90
57466;DHT22;67033;44.984;20.068;2023-01-28T05:52:11;2.60;99.90
57466;DHT22;67033;44.984;20.068;2023-01-28T05:54:37;2.70;99.90
57466;DHT22;67033;44.984;20.068;2023-01-28T05:57:03;2.70;99.90
57466;DHT22;67033;44.984;20.068;2023-01-28T05:59:29;2.70;99.90
57466;DHT22;67033;44.984;20.068;2023-01-28T06:01:55;2.80;99.90
57466;DHT22;67033;44.984;20.068;2023-01-28T06:04:20;2.70;99.90
57466;DHT22;67033;44.984;20.068;2023-01-28T06:06:46;2.80;99.90
57466;DHT22;67033;44.984;20.068;2023-01-28T06:09:12;2.80;99.90
57466;DHT22;67033;44.984;20.068;2023-01-28T06:11:38;2.80;99.90
57466;DHT22;67033;44.984;20.068;2023-01-28T06:14:04;2.80;99.90
57466;DHT22;67033;44.984;20.068;2023-01-28T06:16:30;2.90;99.90
57466;DHT22;67033;44.984;20.068;2023-01-28T06:18:56;2.80;99.90
57466;DHT22;67033;44.984;20.068;2023-01-28T06:21:22;2.80;99.90
57466;DHT22;67033;44.984;20.068;2023-01-28T06:23:47;2.70;99.90
57466;DHT22;67033;44.984;20.068;2023-01-28T06:26:13;2.70;99.90
57466;DHT22;67033;44.984;20.068;2023-01-28T06:28:39;2.70;99.90
57466;DHT22;67033;44.984;20.068;2023-01-28T06:31:05;2.70;99.90
57466;DHT22;67033;44.984;20.068;2023-01-28T06:33:31;2.80;99.90
57466;DHT22;67033;44.984;20.068;2023-01-28T06:35:57;2.80;99.90
57466;DHT22;67033;44.984;20.068;2023-01-28T06:38:23;2.80;99.90
57466;DHT22;67033;44.984;20.068;2023-01-28T06:40:52;2.70;99.90
57466;DHT22;67033;44.984;20.068;2023-01-28T06:43:21;2.70;99.90
57466;DHT22;67033;44.984;20.068;2023-01-28T06:45:55;2.80;99.90
57466;DHT22;67033;44.984;20.068;2023-01-28T06:48:22;2.80;99.90
57466;DHT22;67033;44.984;20.068;2023-01-28T06:50:48;2.80;99.90
57466;DHT22;67033;44.984;20.068;2023-01-28T06:53:14;2.70;99.90
57466;DHT22;67033;44.984;20.068;2023-01-28T06:55:40;2.60;99.90
57466;DHT22;67033;44.984;20.068;2023-01-28T06:58:06;2.50;99.90
57466;DHT22;67033;44.984;20.068;2023-01-28T07:00:32;2.50;99.90
57466;DHT22;67033;44.984;20.068;2023-01-28T07:02:58;2.50;99.90
57466;DHT22;67033;44.984;20.068;2023-01-28T07:05:24;2.60;99.90
57466;DHT22;67033;44.984;20.068;2023-01-28T07:07:50;2.70;99.90
57466;DHT22;67033;44.984;20.068;2023-01-28T07:10:16;2.80;99.90
57466;DHT22;67033;44.984;20.068;2023-01-28T07:12:42;2.70;99.90
57466;DHT22;67033;44.984;20.068;2023-01-28T07:15:08;2.80;99.90
57466;DHT22;67033;44.984;20.068;2023-01-28T07:17:38;2.70;99.90
57466;DHT22;67033;44.984;20.068;2023-01-28T07:20:06;2.70;99.90
57466;DHT22;67033;44.984;20.068;2023-01-28T07:22:32;2.80;99.90
57466;DHT22;67033;44.984;20.068;2023-01-28T07:24:57;2.80;99.90
57466;DHT22;67033;44.984;20.068;2023-01-28T07:27:25;2.80;99.90
57466;DHT22;67033;44.984;20.068;2023-01-28T07:29:51;2.80;99.90
57466;DHT22;67033;44.984;20.068;2023-01-28T07:32:17;2.80;99.90
57466;DHT22;67033;44.984;20.068;2023-01-28T07:34:43;2.80;99.90
57466;DHT22;67033;44.984;20.068;2023-01-28T07:37:09;2.90;99.90
57466;DHT22;67033;44.984;20.068;2023-01-28T07:39:35;2.80;99.90
57466;DHT22;67033;44.984;20.068;2023-01-28T07:42:01;2.80;99.90
57466;DHT22;67033;44.984;20.068;2023-01-28T07:44:27;2.80;99.90
57466;DHT22;67033;44.984;20.068;2023-01-28T07:46:53;2.80;99.90
57466;DHT22;67033;44.984;20.068;2023-01-28T07:49:19;2.90;99.90
57466;DHT22;67033;44.984;20.068;2023-01-28T07:51:44;2.80;99.90
57466;DHT22;67033;44.984;20.068;2023-01-28T07:54:12;2.80;99.90
57466;DHT22;67033;44.984;20.068;2023-01-28T07:56:37;2.80;99.90
57466;DHT22;67033;44.984;20.068;2023-01-28T07:59:03;2.80;99.90
57466;DHT22;67033;44.984;20.068;2023-01-28T08:01:29;2.80;99.90
57466;DHT22;67033;44.984;20.068;2023-01-28T08:03:55;2.80;99.90
57466;DHT22;67033;44.984;20.068;2023-01-28T08:06:21;2.90;99.90
57466;DHT22;67033;44.984;20.068;2023-01-28T08:08:47;2.90;99.90
57466;DHT22;67033;44.984;20.068;2023-01-28T08:11:13;2.90;99.90
57466;DHT22;67033;44.984;20.068;2023-01-28T08:13:39;2.90;99.90
57466;DHT22;67033;44.984;20.068;2023-01-28T08:16:05;3.00;99.90
57466;DHT22;67033;44.984;20.068;2023-01-28T08:18:31;3.10;99.90
57466;DHT22;67033;44.984;20.068;2023-01-28T08:20:58;3.10;99.90
57466;DHT22;67033;44.984;20.068;2023-01-28T08:23:24;3.20;99.90
57466;DHT22;67033;44.984;20.068;2023-01-28T08:25:53;3.20;99.90
57466;DHT22;67033;44.984;20.068;2023-01-28T08:28:20;3.20;99.90
57466;DHT22;67033;44.984;20.068;2023-01-28T08:30:46;3.20;99.90
57466;DHT22;67033;44.984;20.068;2023-01-28T08:33:13;3.20;99.90
57466;DHT22;67033;44.984;20.068;2023-01-28T08:35:40;3.20;99.90
57466;DHT22;67033;44.984;20.068;2023-01-28T08:38:06;3.10;99.90
57466;DHT22;67033;44.984;20.068;2023-01-28T08:40:33;3.20;99.90
57466;DHT22;67033;44.984;20.068;2023-01-28T08:42:59;3.10;99.90
57466;DHT22;67033;44.984;20.068;2023-01-28T08:45:26;3.20;99.90
57466;DHT22;67033;44.984;20.068;2023-01-28T08:47:58;3.30;99.90
57466;DHT22;67033;44.984;20.068;2023-01-28T08:50:26;3.20;99.90
57466;DHT22;67033;44.984;20.068;2023-01-28T08:52:57;3.20;99.90
57466;DHT22;67033;44.984;20.068;2023-01-28T08:55:24;3.10;99.90
57466;DHT22;67033;44.984;20.068;2023-01-28T08:57:50;3.20;99.90
57466;DHT22;67033;44.984;20.068;2023-01-28T09:00:16;3.00;99.90
57466;DHT22;67033;44.984;20.068;2023-01-28T09:02:42;3.10;99.90
57466;DHT22;67033;44.984;20.068;2023-01-28T09:05:08;3.20;99.90
57466;DHT22;67033;44.984;20.068;2023-01-28T09:07:35;3.20;99.90
57466;DHT22;67033;44.984;20.068;2023-01-28T09:10:02;3.30;99.90
57466;DHT22;67033;44.984;20.068;2023-01-28T09:12:28;3.40;99.90
57466;DHT22;67033;44.984;20.068;2023-01-28T09:14:54;3.30;99.90
57466;DHT22;67033;44.984;20.068;2023-01-28T09:17:20;3.10;99.90
57466;DHT22;67033;44.984;20.068;2023-01-28T09:19:46;3.20;99.90
57466;DHT22;67033;44.984;20.068;2023-01-28T09:22:12;3.30;99.90
57466;DHT22;67033;44.984;20.068;2023-01-28T09:24:38;3.10;99.90
57466;DHT22;67033;44.984;20.068;2023-01-28T09:27:03;3.10;99.90
57466;DHT22;67033;44.984;20.068;2023-01-28T09:29:29;3.30;99.90
57466;DHT22;67033;44.984;20.068;2023-01-28T09:31:55;3.30;99.90
57466;DHT22;67033;44.984;20.068;2023-01-28T09:34:21;3.30;99.90
57466;DHT22;67033;44.984;20.068;2023-01-28T09:36:46;3.20;99.90
57466;DHT22;67033;44.984;20.068;2023-01-28T09:39:12;3.30;99.90
57466;DHT22;67033;44.984;20.068;2023-01-28T09:47:01;3.10;99.90
57466;DHT22;67033;44.984;20.068;2023-01-28T09:49:41;3.00;99.90
57466;DHT22;67033;44.984;20.068;2023-01-28T09:52:14;3.10;99.90
57466;DHT22;67033;44.984;20.068;2023-01-28T09:54:58;3.20;99.90
57466;DHT22;67033;44.984;20.068;2023-01-28T09:57:35;3.20;99.90
57466;DHT22;67033;44.984;20.068;2023-01-28T10:00:08;3.20;99.90
57466;DHT22;67033;44.984;20.068;2023-01-28T10:16:56;3.30;99.90
57466;DHT22;67033;44.984;20.068;2023-01-28T10:19:28;3.20;99.90
57466;DHT22;67033;44.984;20.068;2023-01-28T10:22:34;3.20;99.90
57466;DHT22;67033;44.984;20.068;2023-01-28T10:24:56;3.20;99.90
57466;DHT22;67033;44.984;20.068;2023-01-28T10:27:27;3.40;99.90
57466;DHT22;67033;44.984;20.068;2023-01-28T10:29:53;3.40;99.90
57466;DHT22;67033;44.984;20.068;2023-01-28T10:32:32;3.30;99.90
57466;DHT22;67033;44.984;20.068;2023-01-28T10:35:02;3.40;99.90
57466;DHT22;67033;44.984;20.068;2023-01-28T10:37:32;3.50;99.90
57466;DHT22;67033;44.984;20.068;2023-01-28T10:39:59;3.50;99.90
57466;DHT22;67033;44.984;20.068;2023-01-28T10:42:28;3.50;99.90
57466;DHT22;67033;44.984;20.068;2023-01-28T10:45:07;3.60;99.90
57466;DHT22;67033;44.984;20.068;2023-01-28T10:47:46;3.60;99.90
57466;DHT22;67033;44.984;20.068;2023-01-28T10:50:23;3.60;99.90
57466;DHT22;67033;44.984;20.068;2023-01-28T10:53:10;3.60;99.90
57466;DHT22;67033;44.984;20.068;2023-01-28T10:55:56;3.50;99.90
57466;DHT22;67033;44.984;20.068;2023-01-28T10:58:26;3.40;99.90
57466;DHT22;67033;44.984;20.068;2023-01-28T11:00:54;3.50;99.90
57466;DHT22;67033;44.984;20.068;2023-01-28T11:03:22;3.50;99.90
57466;DHT22;67033;44.984;20.068;2023-01-28T11:05:54;3.60;99.90
57466;DHT22;67033;44.984;20.068;2023-01-28T11:08:21;3.60;99.90
57466;DHT22;67033;44.984;20.068;2023-01-28T11:10:48;3.60;99.90
57466;DHT22;67033;44.984;20.068;2023-01-28T11:13:17;3.40;99.90
57466;DHT22;67033;44.984;20.068;2023-01-28T11:16:02;3.50;99.90
57466;DHT22;67033;44.984;20.068;2023-01-28T11:18:39;3.60;99.90
57466;DHT22;67033;44.984;20.068;2023-01-28T11:21:15;3.60;99.90
57466;DHT22;67033;44.984;20.068;2023-01-28T11:24:02;3.50;99.90
57466;DHT22;67033;44.984;20.068;2023-01-28T11:26:34;3.60;99.90
57466;DHT22;67033;44.984;20.068;2023-01-28T11:29:01;3.60;99.90
57466;DHT22;67033;44.984;20.068;2023-01-28T11:31:27;3.70;99.90
57466;DHT22;67033;44.984;20.068;2023-01-28T11:36:24;3.80;99.90
57466;DHT22;67033;44.984;20.068;2023-01-28T11:39:22;3.70;99.90
57466;DHT22;67033;44.984;20.068;2023-01-28T11:41:47;3.70;99.90
57466;DHT22;67033;44.984;20.068;2023-01-28T11:44:18;3.70;99.90
57466;DHT22;67033;44.984;20.068;2023-01-28T11:47:15;3.80;99.90
57466;DHT22;67033;44.984;20.068;2023-01-28T12:05:50;3.40;99.90
57466;DHT22;67033;44.984;20.068;2023-01-28T12:08:25;3.50;99.90
57466;DHT22;67033;44.984;20.068;2023-01-28T12:13:50;3.60;99.90
57466;DHT22;67033;44.984;20.068;2023-01-28T12:16:27;3.60;99.90
57466;DHT22;67033;44.984;20.068;2023-01-28T12:24:52;3.70;99.90
57466;DHT22;67033;44.984;20.068;2023-01-28T12:40:43;3.80;99.90
57466;DHT22;67033;44.984;20.068;2023-01-28T12:43:14;3.80;99.90
57466;DHT22;67033;44.984;20.068;2023-01-28T12:45:53;3.80;99.90
57466;DHT22;67033;44.984;20.068;2023-01-28T12:48:29;3.80;99.90
57466;DHT22;67033;44.984;20.068;2023-01-28T12:51:03;3.70;99.90
57466;DHT22;67033;44.984;20.068;2023-01-28T12:53:48;3.70;99.90
57466;DHT22;67033;44.984;20.068;2023-01-28T12:56:20;3.80;99.90
57466;DHT22;67033;44.984;20.068;2023-01-28T12:59:13;3.70;99.90
57466;DHT22;67033;44.984;20.068;2023-01-28T13:02:22;3.80;99.90
57466;DHT22;67033;44.984;20.068;2023-01-28T13:05:09;3.80;99.90
57466;DHT22;67033;44.984;20.068;2023-01-28T13:08:00;3.80;99.90
57466;DHT22;67033;44.984;20.068;2023-01-28T13:10:41;3.70;99.90
57466;DHT22;67033;44.984;20.068;2023-01-28T13:15:41;3.80;99.90
57466;DHT22;67033;44.984;20.068;2023-01-28T13:18:32;3.70;99.90
57466;DHT22;67033;44.984;20.068;2023-01-28T13:21:00;3.70;99.90
57466;DHT22;67033;44.984;20.068;2023-01-28T13:23:46;3.70;99.90
57466;DHT22;67033;44.984;20.068;2023-01-28T13:28:48;3.70;99.90
57466;DHT22;67033;44.984;20.068;2023-01-28T13:31:20;3.60;99.90
57466;DHT22;67033;44.984;20.068;2023-01-28T13:34:06;3.60;99.90
57466;DHT22;67033;44.984;20.068;2023-01-28T13:36:35;3.60;99.90
57466;DHT22;67033;44.984;20.068;2023-01-28T13:44:03;3.40;99.90
57466;DHT22;67033;44.984;20.068;2023-01-28T13:46:30;3.40;99.90
57466;DHT22;67033;44.984;20.068;2023-01-28T13:48:57;3.50;99.90
57466;DHT22;67033;44.984;20.068;2023-01-28T13:51:29;3.50;99.90
57466;DHT22;67033;44.984;20.068;2023-01-28T13:54:05;3.60;99.90
57466;DHT22;67033;44.984;20.068;2023-01-28T14:03:00;3.50;99.90
57466;DHT22;67033;44.984;20.068;2023-01-28T14:17:43;3.50;99.90
57466;DHT22;67033;44.984;20.068;2023-01-28T14:19:51;3.60;99.90
57466;DHT22;67033;44.984;20.068;2023-01-28T14:22:20;3.50;99.90
57466;DHT22;67033;44.984;20.068;2023-01-28T14:24:49;3.40;99.90
57466;DHT22;67033;44.984;20.068;2023-01-28T14:27:37;3.50;99.90
57466;DHT22;67033;44.984;20.068;2023-01-28T14:30:14;3.50;99.90
57466;DHT22;67033;44.984;20.068;2023-01-28T14:32:48;3.50;99.90
57466;DHT22;67033;44.984;20.068;2023-01-28T14:35:29;3.40;99.90
57466;DHT22;67033;44.984;20.068;2023-01-28T14:37:57;3.50;99.90
57466;DHT22;67033;44.984;20.068;2023-01-28T14:40:23;3.50;99.90
57466;DHT22;67033;44.984;20.068;2023-01-28T14:42:53;3.40;99.90
57466;DHT22;67033;44.984;20.068;2023-01-28T14:45:55;3.60;99.90
57466;DHT22;67033;44.984;20.068;2023-01-28T14:48:29;3.50;99.90
57466;DHT22;67033;44.984;20.068;2023-01-28T14:59:17;3.60;99.90
57466;DHT22;67033;44.984;20.068;2023-01-28T15:01:47;3.70;99.90
57466;DHT22;67033;44.984;20.068;2023-01-28T15:04:42;3.70;99.90
57466;DHT22;67033;44.984;20.068;2023-01-28T15:07:23;3.60;99.90
57466;DHT22;67033;44.984;20.068;2023-01-28T15:12:56;3.60;99.90
57466;DHT22;67033;44.984;20.068;2023-01-28T15:17:53;3.60;99.90
57466;DHT22;67033;44.984;20.068;2023-01-28T15:20:23;3.60;99.90
57466;DHT22;67033;44.984;20.068;2023-01-28T15:22:52;3.60;99.90
57466;DHT22;67033;44.984;20.068;2023-01-28T15:25:23;3.60;99.90
57466;DHT22;67033;44.984;20.068;2023-01-28T15:27:52;3.50;99.90
57466;DHT22;67033;44.984;20.068;2023-01-28T15:30:23;3.50;99.90
57466;DHT22;67033;44.984;20.068;2023-01-28T15:33:01;3.50;99.90
57466;DHT22;67033;44.984;20.068;2023-01-28T15:35:28;3.50;99.90
57466;DHT22;67033;44.984;20.068;2023-01-28T15:37:54;3.50;99.90
57466;DHT22;67033;44.984;20.068;2023-01-28T15:40:21;3.50;99.90
57466;DHT22;67033;44.984;20.068;2023-01-28T15:42:48;3.50;99.90
57466;DHT22;67033;44.984;20.068;2023-01-28T15:45:17;3.60;99.90
57466;DHT22;67033;44.984;20.068;2023-01-28T15:47:43;3.60;99.90
57466;DHT22;67033;44.984;20.068;2023-01-28T15:50:20;3.70;99.90
57466;DHT22;67033;44.984;20.068;2023-01-28T15:52:47;3.60;99.90
57466;DHT22;67033;44.984;20.068;2023-01-28T15:55:38;3.70;99.90
57466;DHT22;67033;44.984;20.068;2023-01-28T15:58:28;3.60;99.90
57466;DHT22;67033;44.984;20.068;2023-01-28T16:01:11;3.50;99.90
57466;DHT22;67033;44.984;20.068;2023-01-28T16:03:39;3.50;99.90
57466;DHT22;67033;44.984;20.068;2023-01-28T16:11:04;3.50;99.90
57466;DHT22;67033;44.984;20.068;2023-01-28T16:13:33;3.40;99.90
57466;DHT22;67033;44.984;20.068;2023-01-28T16:16:01;3.40;99.90
57466;DHT22;67033;44.984;20.068;2023-01-28T16:18:43;3.40;99.90
57466;DHT22;67033;44.984;20.068;2023-01-28T16:21:19;3.40;99.90
57466;DHT22;67033;44.984;20.068;2023-01-28T16:24:00;3.40;99.90
57466;DHT22;67033;44.984;20.068;2023-01-28T16:26:27;3.40;99.90
57466;DHT22;67033;44.984;20.068;2023-01-28T16:28:54;3.40;99.90
57466;DHT22;67033;44.984;20.068;2023-01-28T16:31:20;3.50;99.90
57466;DHT22;67033;44.984;20.068;2023-01-28T16:33:46;3.50;99.90
57466;DHT22;67033;44.984;20.068;2023-01-28T16:36:13;3.50;99.90
57466;DHT22;67033;44.984;20.068;2023-01-28T16:38:39;3.40;99.90
57466;DHT22;67033;44.984;20.068;2023-01-28T16:41:24;3.50;99.90
57466;DHT22;67033;44.984;20.068;2023-01-28T16:43:51;3.50;99.90
57466;DHT22;67033;44.984;20.068;2023-01-28T16:46:17;3.40;99.90
57466;DHT22;67033;44.984;20.068;2023-01-28T16:48:43;3.50;99.90
57466;DHT22;67033;44.984;20.068;2023-01-28T16:51:16;3.40;99.90
57466;DHT22;67033;44.984;20.068;2023-01-28T16:53:46;3.40;99.90
57466;DHT22;67033;44.984;20.068;2023-01-28T16:56:22;3.40;99.90
57466;DHT22;67033;44.984;20.068;2023-01-28T16:58:49;3.50;99.90
57466;DHT22;67033;44.984;20.068;2023-01-28T17:01:15;3.50;99.90
57466;DHT22;67033;44.984;20.068;2023-01-28T17:03:41;3.40;99.90
57466;DHT22;67033;44.984;20.068;2023-01-28T17:06:08;3.40;99.90
57466;DHT22;67033;44.984;20.068;2023-01-28T17:08:36;3.40;99.90
57466;DHT22;67033;44.984;20.068;2023-01-28T17:11:02;3.40;99.90
57466;DHT22;67033;44.984;20.068;2023-01-28T17:13:29;3.40;99.90
57466;DHT22;67033;44.984;20.068;2023-01-28T17:15:54;3.50;99.90
57466;DHT22;67033;44.984;20.068;2023-01-28T17:18:20;3.50;99.90
57466;DHT22;67033;44.984;20.068;2023-01-28T17:20:46;3.50;99.90
57466;DHT22;67033;44.984;20.068;2023-01-28T17:23:14;3.60;99.90
57466;DHT22;67033;44.984;20.068;2023-01-28T17:25:41;3.60;99.90
57466;DHT22;67033;44.984;20.068;2023-01-28T17:28:08;3.60;99.90
57466;DHT22;67033;44.984;20.068;2023-01-28T17:30:37;3.60;99.90
57466;DHT22;67033;44.984;20.068;2023-01-28T17:33:03;3.60;99.90
57466;DHT22;67033;44.984;20.068;2023-01-28T17:35:30;3.60;99.90
57466;DHT22;67033;44.984;20.068;2023-01-28T17:37:56;3.70;99.90
57466;DHT22;67033;44.984;20.068;2023-01-28T17:40:22;3.60;99.90
57466;DHT22;67033;44.984;20.068;2023-01-28T17:42:48;3.60;99.90
57466;DHT22;67033;44.984;20.068;2023-01-28T17:45:14;3.70;99.90
57466;DHT22;67033;44.984;20.068;2023-01-28T17:47:41;3.60;99.90
57466;DHT22;67033;44.984;20.068;2023-01-28T17:50:07;3.60;99.90
57466;DHT22;67033;44.984;20.068;2023-01-28T17:52:34;3.60;99.90
57466;DHT22;67033;44.984;20.068;2023-01-28T17:54:59;3.60;99.90
57466;DHT22;67033;44.984;20.068;2023-01-28T17:57:25;3.50;99.90
57466;DHT22;67033;44.984;20.068;2023-01-28T17:59:51;3.50;99.90